EGOP - Pembrey Sands
Distance from station: E 5mi, 14km
Updated: 07/18/2018 2:50pm
Mostly Cloudy
Mostly Cloudy
 Wind from NNW
Wind: NNW 7 mph , 11 km/h
Temperature: 61°F , 16°C
Dew Point: 50°F , 10°C
Humidity: 68%
Barometer: 30.12 inHg , 1020 hPa
Clouds: Mostly Cloudy
Visibility: 6 miles , 10 km
Cloud details: Mostly Cloudy 5000 ft
2018/07/18 21:50 EGOP 182150Z AUTO 34006KT 9999 // BKN050/// 16/10 Q1020